createdAt,value
2018-09-19T00:00:14.858Z,73.58
2018-09-19T00:02:43.902Z,74.21
2018-09-19T00:05:12.829Z,73.32
2018-09-19T00:07:41.772Z,73.92
2018-09-19T00:10:10.732Z,73.83
2018-09-19T00:12:39.625Z,73.75
2018-09-19T00:15:08.549Z,74.79
2018-09-19T00:17:37.523Z,75.29
2018-09-19T00:20:06.661Z,75.58
2018-09-19T00:22:35.655Z,75.24
2018-09-19T00:25:04.575Z,75.03
2018-09-19T00:27:33.527Z,75.64
2018-09-19T00:30:02.501Z,75.64
2018-09-19T00:32:31.510Z,75.41
2018-09-19T00:35:00.413Z,75.44
2018-09-19T00:37:29.337Z,75.82
2018-09-19T00:39:58.257Z,75.80
2018-09-19T00:42:27.185Z,76.35
2018-09-19T00:44:56.155Z,76.26
2018-09-19T00:47:25.059Z,76.11
2018-09-19T00:49:53.978Z,77.09
2018-09-19T00:52:22.930Z,77.12
2018-09-19T00:54:51.861Z,76.83
2018-09-19T00:57:20.841Z,77.63
2018-09-19T00:59:49.848Z,77.40
2018-09-19T01:02:18.773Z,77.04
2018-09-19T01:04:47.865Z,77.94
2018-09-19T01:07:16.743Z,77.69
2018-09-19T01:09:45.668Z,77.60
2018-09-19T01:12:14.580Z,77.29
2018-09-19T01:14:43.478Z,78.55
2018-09-19T01:17:12.454Z,78.18
2018-09-19T01:19:41.394Z,78.85
2018-09-19T01:22:10.331Z,79.05
2018-09-19T01:24:39.246Z,78.84
2018-09-19T01:27:08.166Z,78.63
2018-09-19T01:29:37.184Z,78.97
2018-09-19T01:32:06.125Z,78.46
2018-09-19T01:34:35.027Z,78.65
2018-09-19T01:37:03.951Z,78.54
2018-09-19T01:39:32.931Z,79.21
2018-09-19T01:42:01.855Z,78.87
2018-09-19T01:44:30.802Z,80.19
2018-09-19T01:46:59.724Z,80.36
2018-09-19T01:49:28.648Z,80.09
2018-09-19T01:51:57.571Z,79.75
2018-09-19T01:54:26.566Z,79.99
2018-09-19T01:56:55.622Z,80.34
2018-09-19T01:59:24.567Z,79.90
2018-09-19T02:01:53.508Z,81.16
2018-09-19T02:04:22.436Z,81.07
2018-09-19T02:06:51.772Z,81.63
2018-09-19T02:09:20.731Z,81.29
2018-09-19T02:11:49.682Z,80.58
2018-09-19T02:14:18.603Z,81.65
2018-09-19T02:16:47.534Z,83.26
2018-09-19T02:19:16.472Z,82.76
2018-09-19T02:21:45.400Z,82.09
2018-09-19T02:24:14.328Z,82.07
2018-09-19T02:26:43.267Z,83.07
2018-09-19T02:29:12.255Z,82.33
2018-09-19T02:31:41.345Z,82.65
2018-09-19T02:34:10.328Z,82.29
2018-09-19T02:36:39.268Z,82.65
2018-09-19T02:39:09.421Z,82.67
2018-09-19T02:41:38.500Z,82.62
2018-09-19T02:44:07.567Z,83.78
2018-09-19T02:46:36.507Z,83.21
2018-09-19T02:49:05.528Z,83.86
2018-09-19T02:51:34.583Z,84.33
2018-09-19T02:54:03.518Z,84.13
2018-09-19T02:56:32.485Z,83.36
2018-09-19T02:59:01.555Z,83.08
2018-09-19T03:01:30.514Z,82.56
2018-09-19T03:04:00.347Z,83.78
2018-09-19T03:06:29.278Z,83.81
2018-09-19T03:08:58.219Z,83.47
2018-09-19T03:11:27.166Z,84.32
2018-09-19T03:13:56.089Z,83.67
2018-09-19T03:16:25.022Z,85.17
2018-09-19T03:18:53.961Z,83.95
2018-09-19T03:21:22.900Z,83.82
2018-09-19T03:23:51.824Z,84.78
2018-09-19T03:26:20.767Z,85.23
2018-09-19T03:28:49.707Z,85.87
2018-09-19T03:31:18.649Z,85.38
2018-09-19T03:33:47.550Z,86.07
2018-09-19T03:36:16.629Z,85.41
2018-09-19T03:38:45.561Z,85.41
2018-09-19T03:41:14.568Z,85.14
2018-09-19T03:43:43.520Z,85.49
2018-09-19T03:46:12.468Z,86.08
2018-09-19T03:48:42.475Z,86.33
2018-09-19T03:51:11.443Z,86.17
2018-09-19T03:53:40.399Z,86.42
2018-09-19T03:56:09.411Z,87.30
2018-09-19T03:58:38.287Z,87.27
2018-09-19T04:01:07.285Z,87.49
2018-09-19T04:03:36.219Z,87.01
2018-09-19T04:06:05.162Z,87.09
2018-09-19T04:08:34.073Z,88.07
2018-09-19T04:11:03.015Z,86.85
2018-09-19T04:13:31.950Z,86.68
2018-09-19T04:16:00.889Z,86.76
2018-09-19T04:18:30.220Z,87.69
2018-09-19T04:20:59.395Z,87.47
2018-09-19T04:23:28.366Z,87.64
2018-09-19T04:25:57.311Z,87.17
2018-09-19T04:28:26.288Z,87.53
2018-09-19T04:30:55.334Z,88.53
2018-09-19T04:33:24.309Z,87.31
2018-09-19T04:35:53.259Z,86.13
2018-09-19T04:38:22.216Z,87.26
2018-09-19T04:40:51.203Z,88.00
2018-09-19T04:43:20.129Z,87.18
2018-09-19T04:45:49.063Z,87.48
2018-09-19T04:48:24.604Z,87.52
2018-09-19T04:50:53.500Z,87.75
2018-09-19T04:53:22.424Z,87.50
2018-09-19T04:55:51.335Z,88.17
2018-09-19T04:58:20.274Z,86.99
2018-09-19T05:00:49.205Z,87.14
2018-09-19T05:03:18.204Z,86.78
2018-09-19T05:05:47.220Z,86.76
2018-09-19T05:08:16.080Z,85.67
2018-09-19T05:10:44.970Z,86.58
2018-09-19T05:13:13.962Z,85.91
2018-09-19T05:15:42.894Z,85.73
2018-09-19T05:18:11.840Z,84.65
2018-09-19T05:20:40.771Z,84.97
2018-09-19T05:23:09.696Z,84.77
2018-09-19T05:25:38.614Z,85.66
2018-09-19T05:28:07.521Z,84.31
2018-09-19T05:30:36.437Z,84.17
2018-09-19T05:33:05.368Z,83.76
2018-09-19T05:35:34.285Z,84.09
2018-09-19T05:38:03.208Z,83.83
2018-09-19T05:40:32.141Z,83.65
2018-09-19T05:43:01.063Z,83.82
2018-09-19T05:45:29.974Z,83.88
2018-09-19T05:47:58.909Z,81.44
2018-09-19T05:50:34.451Z,79.83
2018-09-19T05:53:03.387Z,79.95
2018-09-19T05:55:32.391Z,79.35
2018-09-19T05:58:01.299Z,79.65
2018-09-19T06:00:30.229Z,75.43
2018-09-19T06:02:59.175Z,73.78
2018-09-19T06:05:28.085Z,71.69
2018-09-19T06:07:57.027Z,68.01
2018-09-19T06:10:25.937Z,66.02
2018-09-19T06:12:54.930Z,65.70
2018-09-19T06:15:23.859Z,64.08
2018-09-19T06:17:52.803Z,61.64
2018-09-19T06:20:21.902Z,60.10
2018-09-19T06:22:50.944Z,59.92
2018-09-19T06:25:20.011Z,61.96
2018-09-19T06:27:49.239Z,63.86
2018-09-19T06:30:18.172Z,62.23
2018-09-19T06:32:47.131Z,61.10
2018-09-19T06:35:16.019Z,59.21
2018-09-19T06:37:44.974Z,55.52
2018-09-19T06:40:13.917Z,57.46
2018-09-19T06:42:42.821Z,56.49
2018-09-19T06:45:11.739Z,53.85
2018-09-19T06:47:44.946Z,55.21
2018-09-19T06:50:13.886Z,55.55
2018-09-19T06:52:42.813Z,56.27
2018-09-19T06:55:11.736Z,57.73
2018-09-19T06:57:40.766Z,59.37
2018-09-19T07:00:09.695Z,59.51
2018-09-19T07:02:38.613Z,61.50
2018-09-19T07:05:07.558Z,62.38
2018-09-19T07:07:36.536Z,64.43
2018-09-19T07:10:05.474Z,64.63
2018-09-19T07:12:34.466Z,64.17
2018-09-19T07:15:03.547Z,64.30
2018-09-19T07:17:32.485Z,65.27
2018-09-19T07:20:01.454Z,64.02
2018-09-19T07:22:30.730Z,63.63
2018-09-19T07:24:59.722Z,63.01
2018-09-19T07:27:28.619Z,65.63
2018-09-19T07:29:57.550Z,64.07
2018-09-19T07:32:26.496Z,61.00
2018-09-19T07:34:55.481Z,60.79
2018-09-19T07:37:24.420Z,62.84
2018-09-19T07:39:53.360Z,60.70
2018-09-19T07:42:22.287Z,58.49
2018-09-19T07:44:51.258Z,58.39
2018-09-19T07:47:20.202Z,56.19
2018-09-19T07:49:49.141Z,56.76
2018-09-19T07:52:18.072Z,58.67
2018-09-19T07:54:47.017Z,54.72
2018-09-19T07:57:15.925Z,54.63
2018-09-19T07:59:44.841Z,53.93
2018-09-19T08:02:13.849Z,55.65
2018-09-19T08:04:42.771Z,56.46
2018-09-19T08:07:11.708Z,54.48
2018-09-19T08:09:40.676Z,55.91
2018-09-19T08:12:09.654Z,54.45
2018-09-19T08:14:38.634Z,52.75
2018-09-19T08:17:07.634Z,51.32
2018-09-19T08:19:36.600Z,50.00
2018-09-19T08:22:05.506Z,50.13
2018-09-19T08:24:34.455Z,49.50
2018-09-19T08:27:03.361Z,49.70
2018-09-19T08:29:32.346Z,50.08
2018-09-19T08:32:01.266Z,51.47
2018-09-19T08:34:30.204Z,48.84
2018-09-19T08:36:59.131Z,49.92
2018-09-19T08:39:28.099Z,49.65
2018-09-19T08:41:57.004Z,46.97
2018-09-19T08:44:25.966Z,45.79
2018-09-19T08:46:54.881Z,44.84
2018-09-19T08:49:23.786Z,46.88
2018-09-19T08:51:53.073Z,47.71
2018-09-19T08:54:22.015Z,47.07
2018-09-19T08:56:50.936Z,46.95
2018-09-19T08:59:19.874Z,48.35
2018-09-19T09:01:48.807Z,52.07
2018-09-19T09:04:17.741Z,51.59
2018-09-19T09:06:46.656Z,49.88
2018-09-19T09:09:15.589Z,48.40
2018-09-19T09:11:44.583Z,47.54
2018-09-19T09:14:13.522Z,46.80
2018-09-19T09:16:42.467Z,43.73
2018-09-19T09:19:11.408Z,41.41
2018-09-19T09:21:40.330Z,40.75
2018-09-19T09:24:09.269Z,39.21
2018-09-19T09:26:38.181Z,37.76
2018-09-19T09:29:07.125Z,39.58
2018-09-19T09:31:36.033Z,38.17
2018-09-19T09:34:05.041Z,38.09
2018-09-19T09:36:33.960Z,35.95
2018-09-19T09:39:02.885Z,35.14
2018-09-19T09:41:31.792Z,33.66
2018-09-19T09:44:00.719Z,34.92
2018-09-19T09:46:29.756Z,33.71
2018-09-19T09:48:58.714Z,33.22
2018-09-19T09:51:27.810Z,33.70
2018-09-19T09:53:56.750Z,34.98
2018-09-19T09:56:25.662Z,35.73
2018-09-19T09:58:54.593Z,34.95
2018-09-19T10:01:23.506Z,36.29
2018-09-19T10:03:52.443Z,33.48
2018-09-19T10:06:21.372Z,32.30
2018-09-19T10:08:50.315Z,31.64
2018-09-19T10:11:19.585Z,35.36
2018-09-19T10:13:48.581Z,32.76
2018-09-19T10:16:17.528Z,33.38
2018-09-19T10:18:46.494Z,34.17
2018-09-19T10:21:15.524Z,34.20
2018-09-19T10:23:44.491Z,32.84
2018-09-19T10:26:13.431Z,34.30
2018-09-19T10:28:42.377Z,34.26
2018-09-19T10:31:11.276Z,33.99
2018-09-19T10:33:40.206Z,32.91
2018-09-19T10:36:09.107Z,32.99
2018-09-19T10:38:38.047Z,30.12
2018-09-19T10:41:07.072Z,31.11
2018-09-19T10:43:36.015Z,31.80
2018-09-19T10:46:04.948Z,30.12
2018-09-19T10:48:33.923Z,30.64
2018-09-19T10:51:03.085Z,30.08
2018-09-19T10:53:32.022Z,31.10
2018-09-19T10:56:01.040Z,31.21
2018-09-19T10:58:29.951Z,30.08
2018-09-19T11:00:58.921Z,30.11
2018-09-19T11:03:27.830Z,30.52
2018-09-19T11:05:56.779Z,28.57
2018-09-19T11:08:25.707Z,29.97
2018-09-19T11:10:54.693Z,31.75
2018-09-19T11:13:23.637Z,30.56
2018-09-19T11:15:52.861Z,31.29
2018-09-19T11:18:21.768Z,30.12
2018-09-19T11:20:50.696Z,30.94
2018-09-19T11:23:19.640Z,30.02
2018-09-19T11:25:48.625Z,30.00
2018-09-19T11:28:17.594Z,28.83
2018-09-19T11:30:46.505Z,29.03
2018-09-19T11:33:15.436Z,29.48
2018-09-19T11:35:44.391Z,29.96
2018-09-19T11:38:13.424Z,26.74
2018-09-19T11:40:42.669Z,25.55
2018-09-19T11:43:11.667Z,27.92
2018-09-19T11:45:40.564Z,27.47
2018-09-19T11:48:09.490Z,28.57
2018-09-19T11:50:38.421Z,26.60
2018-09-19T11:53:11.510Z,28.12
2018-09-19T11:55:40.437Z,28.49
2018-09-19T11:58:09.349Z,28.16
2018-09-19T12:00:38.260Z,28.68
2018-09-19T12:03:07.184Z,27.35
2018-09-19T12:05:36.160Z,25.98
2018-09-19T12:08:05.088Z,25.52
2018-09-19T12:10:34.072Z,28.11
2018-09-19T12:13:03.478Z,27.82
2018-09-19T12:15:32.405Z,28.44
2018-09-19T12:18:01.313Z,27.99
2018-09-19T12:20:30.288Z,26.75
2018-09-19T12:22:59.303Z,26.01
2018-09-19T12:25:32.578Z,28.12
2018-09-19T12:28:01.717Z,27.58
2018-09-19T12:30:30.696Z,27.62
2018-09-19T12:32:59.605Z,28.28
2018-09-19T12:35:28.572Z,29.14
2018-09-19T12:37:57.576Z,27.81
2018-09-19T12:40:26.517Z,28.25
2018-09-19T12:42:55.442Z,29.20
2018-09-19T12:45:24.365Z,30.99
2018-09-19T12:47:53.294Z,29.20
2018-09-19T12:50:22.248Z,29.73
2018-09-19T12:52:51.130Z,27.10
2018-09-19T12:55:20.107Z,27.28
2018-09-19T12:57:49.033Z,28.22
2018-09-19T13:00:17.940Z,27.28
2018-09-19T13:02:46.892Z,28.09
2018-09-19T13:05:15.806Z,26.78
2018-09-19T13:07:44.717Z,26.64
2018-09-19T13:10:13.623Z,25.91
2018-09-19T13:12:42.551Z,28.34
2018-09-19T13:15:11.596Z,28.82
2018-09-19T13:17:40.521Z,27.94
2018-09-19T13:20:09.427Z,28.91
2018-09-19T13:22:38.381Z,28.92
2018-09-19T13:25:07.308Z,28.19
2018-09-19T13:27:36.243Z,28.53
2018-09-19T13:30:05.146Z,25.80
2018-09-19T13:32:34.077Z,27.27
2018-09-19T13:35:03.093Z,26.38
2018-09-19T13:37:32.022Z,27.82
2018-09-19T13:40:00.940Z,28.10
2018-09-19T13:42:29.975Z,26.91
2018-09-19T13:44:58.890Z,26.29
2018-09-19T13:47:27.849Z,27.45
2018-09-19T13:49:59.908Z,28.39
2018-09-19T13:52:28.827Z,26.73
2018-09-19T13:54:57.741Z,28.26
2018-09-19T13:57:26.640Z,28.30
2018-09-19T13:59:55.585Z,27.27
2018-09-19T14:02:24.599Z,27.20
2018-09-19T14:04:53.488Z,29.05
2018-09-19T14:07:23.853Z,27.04
2018-09-19T14:09:52.756Z,27.86
2018-09-19T14:12:21.863Z,28.87
2018-09-19T14:14:50.808Z,26.83
2018-09-19T14:17:19.824Z,25.69
2018-09-19T14:19:48.784Z,27.31
2018-09-19T14:22:17.696Z,27.64
2018-09-19T14:24:47.779Z,27.05
2018-09-19T14:27:16.716Z,27.28
2018-09-19T14:29:45.683Z,26.83
2018-09-19T14:32:14.629Z,27.38
2018-09-19T14:34:43.575Z,28.04
2018-09-19T14:37:12.515Z,29.27
2018-09-19T14:39:41.489Z,28.26
2018-09-19T14:42:14.656Z,28.81
2018-09-19T14:44:43.747Z,28.94
2018-09-19T14:47:12.702Z,27.77
2018-09-19T14:49:41.636Z,27.67
2018-09-19T14:52:10.613Z,28.03
2018-09-19T14:54:39.550Z,27.21
2018-09-19T14:57:08.450Z,27.78
2018-09-19T14:59:38.120Z,29.25
2018-09-19T15:02:07.091Z,28.96
2018-09-19T15:04:36.008Z,27.86
2018-09-19T15:07:04.908Z,29.19
2018-09-19T15:09:33.837Z,28.02
2018-09-19T15:12:02.802Z,27.17
2018-09-19T15:14:31.739Z,27.97
2018-09-19T15:17:00.765Z,29.12
2018-09-19T15:19:29.708Z,27.94
2018-09-19T15:21:58.645Z,28.73
2018-09-19T15:24:27.602Z,28.28
2018-09-19T15:26:56.520Z,27.86
2018-09-19T15:29:25.411Z,27.93
2018-09-19T15:31:54.342Z,27.78
2018-09-19T15:34:23.258Z,26.94
2018-09-19T15:36:52.221Z,26.93
2018-09-19T15:39:21.119Z,26.85
2018-09-19T15:41:50.058Z,27.68
2018-09-19T15:44:19.074Z,27.83
2018-09-19T15:46:48.064Z,29.25
2018-09-19T15:49:16.968Z,29.18
2018-09-19T15:51:46.164Z,33.01
2018-09-19T15:54:15.084Z,31.03
2018-09-19T15:56:44.000Z,29.17
2018-09-19T15:59:12.945Z,29.17
2018-09-19T16:01:41.918Z,29.58
2018-09-19T16:04:10.862Z,31.13
2018-09-19T16:06:39.844Z,31.97
2018-09-19T16:09:10.332Z,32.87
2018-09-19T16:11:39.277Z,33.62
2018-09-19T16:14:08.752Z,34.15
2018-09-19T16:16:37.654Z,34.68
2018-09-19T16:19:06.566Z,34.39
2018-09-19T16:21:35.555Z,35.07
2018-09-19T16:24:05.627Z,35.88
2018-09-19T16:26:35.155Z,35.70
2018-09-19T16:29:04.100Z,36.38
2018-09-19T16:31:33.068Z,37.57
2018-09-19T16:34:02.007Z,37.15
2018-09-19T16:36:30.968Z,37.20
2018-09-19T16:38:59.993Z,37.59
2018-09-19T16:41:28.913Z,37.98
2018-09-19T16:43:57.847Z,39.08
2018-09-19T16:46:26.811Z,39.52
2018-09-19T16:48:55.753Z,39.65
2018-09-19T16:51:24.659Z,39.71
2018-09-19T16:53:53.635Z,39.26
2018-09-19T16:56:22.539Z,40.10
2018-09-19T16:58:51.513Z,39.94
2018-09-19T17:01:20.531Z,40.62
2018-09-19T17:03:49.528Z,40.30
2018-09-19T17:06:18.492Z,41.45
2018-09-19T17:08:47.452Z,41.93
2018-09-19T17:11:16.466Z,41.37
2018-09-19T17:13:45.380Z,42.35
2018-09-19T17:16:14.331Z,45.82
2018-09-19T17:18:43.290Z,45.48
2018-09-19T17:21:12.217Z,45.64
2018-09-19T17:23:41.127Z,46.05
2018-09-19T17:26:10.069Z,46.53
2018-09-19T17:28:39.270Z,47.28
2018-09-19T17:31:08.204Z,47.28
2018-09-19T17:33:37.340Z,47.63
2018-09-19T17:36:06.411Z,49.55
2018-09-19T17:38:35.389Z,48.82
2018-09-19T17:41:04.614Z,48.54
2018-09-19T17:43:33.528Z,48.88
2018-09-19T17:46:02.496Z,48.57
2018-09-19T17:48:31.439Z,49.96
2018-09-19T17:51:00.508Z,49.72
2018-09-19T17:53:29.416Z,50.17
2018-09-19T17:55:58.363Z,50.46
2018-09-19T17:58:27.304Z,49.88
2018-09-19T18:00:56.234Z,50.34
2018-09-19T18:03:25.061Z,50.98
2018-09-19T18:05:53.961Z,50.75
2018-09-19T18:08:22.900Z,52.10
2018-09-19T18:10:51.808Z,52.07
2018-09-19T18:13:20.755Z,53.37
2018-09-19T18:15:49.660Z,52.00
2018-09-19T18:18:18.795Z,51.88
2018-09-19T18:20:47.740Z,52.95
2018-09-19T18:23:16.681Z,53.31
2018-09-19T18:25:45.644Z,53.42
2018-09-19T18:28:14.653Z,53.53
2018-09-19T18:30:43.707Z,54.32
2018-09-19T18:33:12.677Z,54.06
2018-09-19T18:35:41.663Z,53.19
2018-09-19T18:38:10.778Z,52.72
2018-09-19T18:40:39.721Z,53.61
2018-09-19T18:43:08.841Z,52.79
2018-09-19T18:45:38.253Z,54.38
2018-09-19T18:48:07.185Z,54.98
2018-09-19T18:50:36.196Z,54.89
2018-09-19T18:53:05.244Z,54.31
2018-09-19T18:55:34.187Z,54.48
2018-09-19T18:58:03.248Z,54.65
2018-09-19T19:00:33.526Z,53.95
2018-09-19T19:03:02.516Z,53.52
2018-09-19T19:05:31.424Z,55.06
2018-09-19T19:08:00.345Z,55.13
2018-09-19T19:10:29.385Z,54.66
2018-09-19T19:12:58.726Z,54.56
2018-09-19T19:15:27.692Z,55.89
2018-09-19T19:17:57.607Z,57.54
2018-09-19T19:20:26.626Z,55.54
2018-09-19T19:22:55.595Z,56.09
2018-09-19T19:25:24.704Z,56.58
2018-09-19T19:27:53.629Z,55.16
2018-09-19T19:30:22.732Z,56.53
2018-09-19T19:32:51.650Z,55.74
2018-09-19T19:35:20.569Z,57.00
2018-09-19T19:37:49.684Z,57.20
2018-09-19T19:40:18.533Z,57.35
2018-09-19T19:42:47.475Z,57.31
2018-09-19T19:45:16.423Z,57.94
2018-09-19T19:47:45.317Z,58.16
2018-09-19T19:50:15.029Z,57.07
2018-09-19T19:52:44.005Z,58.36
2018-09-19T19:55:12.909Z,57.82
2018-09-19T19:57:41.936Z,58.20
2018-09-19T20:00:11.202Z,59.38
2018-09-19T20:02:40.157Z,58.04
2018-09-19T20:05:09.090Z,59.93
2018-09-19T20:07:38.064Z,58.83
2018-09-19T20:10:07.054Z,59.21
2018-09-19T20:12:36.077Z,59.99
2018-09-19T20:15:04.972Z,59.50
2018-09-19T20:17:33.894Z,59.99
2018-09-19T20:20:02.814Z,60.12
2018-09-19T20:22:31.831Z,60.23
2018-09-19T20:25:00.761Z,59.91
2018-09-19T20:27:29.691Z,60.01
2018-09-19T20:29:58.658Z,61.93
2018-09-19T20:32:27.517Z,60.10
2018-09-19T20:34:56.495Z,60.47
2018-09-19T20:37:25.396Z,61.16
2018-09-19T20:39:54.313Z,60.13
2018-09-19T20:42:23.246Z,59.92
2018-09-19T20:44:52.162Z,60.99
2018-09-19T20:47:21.068Z,60.64
2018-09-19T20:49:50.087Z,60.70
2018-09-19T20:52:19.060Z,60.50
2018-09-19T20:54:47.948Z,61.13
2018-09-19T20:57:16.879Z,61.41
2018-09-19T20:59:45.856Z,61.35
2018-09-19T21:02:14.749Z,62.58
2018-09-19T21:04:43.669Z,62.82
2018-09-19T21:07:12.558Z,61.45
2018-09-19T21:09:41.464Z,63.58
2018-09-19T21:12:10.391Z,64.05
2018-09-19T21:14:39.368Z,62.38
2018-09-19T21:17:08.303Z,61.34
2018-09-19T21:19:37.243Z,61.62
2018-09-19T21:22:06.274Z,61.99
2018-09-19T21:24:35.163Z,61.69
2018-09-19T21:27:04.153Z,60.71
2018-09-19T21:29:33.048Z,62.31
2018-09-19T21:32:01.974Z,63.38
2018-09-19T21:34:30.875Z,61.99
2018-09-19T21:36:59.797Z,60.24
2018-09-19T21:39:28.700Z,63.22
2018-09-19T21:41:57.621Z,63.67
2018-09-19T21:44:26.544Z,63.31
2018-09-19T21:46:55.526Z,63.22
2018-09-19T21:49:24.416Z,62.55
2018-09-19T21:51:53.432Z,63.44
2018-09-19T21:54:22.345Z,64.17
2018-09-19T21:56:51.366Z,64.04
2018-09-19T21:59:20.321Z,64.01
2018-09-19T22:01:53.423Z,63.67
2018-09-19T22:04:22.500Z,63.52
2018-09-19T22:06:51.530Z,63.17
2018-09-19T22:09:20.479Z,64.35
2018-09-19T22:11:49.390Z,63.26
2018-09-19T22:14:18.377Z,62.41
2018-09-19T22:16:47.313Z,64.37
2018-09-19T22:19:16.330Z,64.12
2018-09-19T22:21:45.220Z,63.15
2018-09-19T22:24:14.225Z,63.90
2018-09-19T22:26:43.116Z,63.38
2018-09-19T22:29:12.131Z,63.24
2018-09-19T22:31:41.032Z,64.26
2018-09-19T22:34:09.954Z,63.73
2018-09-19T22:36:39.026Z,64.25
2018-09-19T22:39:08.744Z,63.40
2018-09-19T22:41:37.640Z,63.78
2018-09-19T22:44:06.607Z,64.04
2018-09-19T22:46:35.497Z,64.36
2018-09-19T22:49:04.394Z,63.12
2018-09-19T22:51:33.303Z,62.52
2018-09-19T22:54:02.247Z,64.24
2018-09-19T22:56:31.181Z,63.06
2018-09-19T22:59:00.086Z,64.13
2018-09-19T23:01:35.786Z,64.32
2018-09-19T23:04:04.684Z,63.87
2018-09-19T23:06:33.623Z,64.09
2018-09-19T23:09:02.530Z,63.22
2018-09-19T23:11:31.432Z,65.02
2018-09-19T23:14:00.464Z,65.37
2018-09-19T23:16:29.402Z,65.66
2018-09-19T23:18:58.300Z,65.68
2018-09-19T23:21:27.228Z,64.25
2018-09-19T23:23:56.119Z,65.40
2018-09-19T23:26:25.059Z,65.22
2018-09-19T23:28:54.103Z,65.31
2018-09-19T23:31:23.100Z,65.13
2018-09-19T23:33:52.061Z,66.00
2018-09-19T23:36:20.956Z,65.14
2018-09-19T23:38:49.908Z,65.57
2018-09-19T23:41:18.864Z,65.64
2018-09-19T23:43:47.815Z,66.60
2018-09-19T23:46:16.761Z,65.12
2018-09-19T23:48:45.695Z,66.30
2018-09-19T23:51:14.635Z,65.47
2018-09-19T23:53:43.569Z,65.60
2018-09-19T23:56:12.497Z,66.95
2018-09-19T23:58:41.432Z,66.44
